sensor_id;sensor_type;location;lat;lon;timestamp;P1;durP1;ratioP1;P2;durP2;ratioP2
69207;SDS011;70114;47.690;8.898;2023-09-30T00:02:00;13.00;;;2.85;;
69207;SDS011;70114;47.690;8.898;2023-09-30T00:04:26;11.65;;;2.92;;
69207;SDS011;70114;47.690;8.898;2023-09-30T00:06:57;12.75;;;2.80;;
69207;SDS011;70114;47.690;8.898;2023-09-30T00:09:26;14.87;;;2.60;;
69207;SDS011;70114;47.690;8.898;2023-09-30T00:11:52;11.50;;;2.53;;
69207;SDS011;70114;47.690;8.898;2023-09-30T00:14:20;12.70;;;2.70;;
69207;SDS011;70114;47.690;8.898;2023-09-30T00:16:45;11.93;;;2.97;;
69207;SDS011;70114;47.690;8.898;2023-09-30T00:19:11;15.05;;;2.90;;
69207;SDS011;70114;47.690;8.898;2023-09-30T00:21:39;13.85;;;3.17;;
69207;SDS011;70114;47.690;8.898;2023-09-30T00:24:04;12.50;;;2.80;;
69207;SDS011;70114;47.690;8.898;2023-09-30T00:26:30;13.27;;;2.80;;
69207;SDS011;70114;47.690;8.898;2023-09-30T00:28:59;15.00;;;3.15;;
69207;SDS011;70114;47.690;8.898;2023-09-30T00:31:25;12.70;;;3.00;;
69207;SDS011;70114;47.690;8.898;2023-09-30T00:33:50;13.52;;;3.25;;
69207;SDS011;70114;47.690;8.898;2023-09-30T00:36:16;12.47;;;3.30;;
69207;SDS011;70114;47.690;8.898;2023-09-30T00:38:42;13.17;;;3.43;;
69207;SDS011;70114;47.690;8.898;2023-09-30T00:41:08;11.85;;;2.95;;
69207;SDS011;70114;47.690;8.898;2023-09-30T00:43:36;13.40;;;3.10;;
69207;SDS011;70114;47.690;8.898;2023-09-30T00:46:04;12.32;;;2.90;;
69207;SDS011;70114;47.690;8.898;2023-09-30T00:48:46;11.50;;;2.65;;
69207;SDS011;70114;47.690;8.898;2023-09-30T00:51:13;12.65;;;2.92;;
69207;SDS011;70114;47.690;8.898;2023-09-30T00:53:39;11.30;;;2.90;;
69207;SDS011;70114;47.690;8.898;2023-09-30T00:56:06;13.23;;;2.88;;
69207;SDS011;70114;47.690;8.898;2023-09-30T00:58:32;12.80;;;2.88;;
69207;SDS011;70114;47.690;8.898;2023-09-30T01:00:59;13.63;;;3.10;;
69207;SDS011;70114;47.690;8.898;2023-09-30T01:03:25;14.35;;;2.97;;
69207;SDS011;70114;47.690;8.898;2023-09-30T01:05:51;12.23;;;2.97;;
69207;SDS011;70114;47.690;8.898;2023-09-30T01:08:19;12.95;;;3.28;;
69207;SDS011;70114;47.690;8.898;2023-09-30T01:10:45;12.73;;;3.03;;
69207;SDS011;70114;47.690;8.898;2023-09-30T01:13:13;12.23;;;3.10;;
69207;SDS011;70114;47.690;8.898;2023-09-30T01:15:39;13.57;;;2.85;;
69207;SDS011;70114;47.690;8.898;2023-09-30T01:18:04;12.88;;;2.90;;
69207;SDS011;70114;47.690;8.898;2023-09-30T01:20:33;11.88;;;2.67;;
69207;SDS011;70114;47.690;8.898;2023-09-30T01:22:59;12.43;;;3.20;;
69207;SDS011;70114;47.690;8.898;2023-09-30T01:25:27;11.45;;;3.13;;
69207;SDS011;70114;47.690;8.898;2023-09-30T01:27:52;11.25;;;3.05;;
69207;SDS011;70114;47.690;8.898;2023-09-30T01:30:19;13.50;;;3.00;;
69207;SDS011;70114;47.690;8.898;2023-09-30T01:32:47;11.77;;;2.80;;
69207;SDS011;70114;47.690;8.898;2023-09-30T01:35:13;12.70;;;2.72;;
69207;SDS011;70114;47.690;8.898;2023-09-30T01:37:39;14.50;;;2.95;;
69207;SDS011;70114;47.690;8.898;2023-09-30T01:40:08;12.70;;;3.13;;
69207;SDS011;70114;47.690;8.898;2023-09-30T01:42:36;12.85;;;2.72;;
69207;SDS011;70114;47.690;8.898;2023-09-30T01:45:03;12.63;;;2.78;;
69207;SDS011;70114;47.690;8.898;2023-09-30T01:47:29;14.13;;;2.95;;
69207;SDS011;70114;47.690;8.898;2023-09-30T01:49:59;13.15;;;3.22;;
69207;SDS011;70114;47.690;8.898;2023-09-30T01:52:27;12.33;;;2.83;;
69207;SDS011;70114;47.690;8.898;2023-09-30T01:54:53;13.18;;;2.88;;
69207;SDS011;70114;47.690;8.898;2023-09-30T01:57:19;14.23;;;2.88;;
69207;SDS011;70114;47.690;8.898;2023-09-30T01:59:44;15.77;;;3.00;;
69207;SDS011;70114;47.690;8.898;2023-09-30T02:02:10;11.83;;;2.80;;
69207;SDS011;70114;47.690;8.898;2023-09-30T02:04:36;15.07;;;3.00;;
69207;SDS011;70114;47.690;8.898;2023-09-30T02:07:01;11.63;;;2.77;;
69207;SDS011;70114;47.690;8.898;2023-09-30T02:09:27;12.37;;;3.03;;
69207;SDS011;70114;47.690;8.898;2023-09-30T02:11:53;14.18;;;3.00;;
69207;SDS011;70114;47.690;8.898;2023-09-30T02:14:20;13.93;;;3.00;;
69207;SDS011;70114;47.690;8.898;2023-09-30T02:16:45;13.63;;;2.88;;
69207;SDS011;70114;47.690;8.898;2023-09-30T02:19:11;12.50;;;3.37;;
69207;SDS011;70114;47.690;8.898;2023-09-30T02:21:38;13.88;;;3.40;;
69207;SDS011;70114;47.690;8.898;2023-09-30T02:24:03;12.10;;;2.77;;
69207;SDS011;70114;47.690;8.898;2023-09-30T02:26:31;13.25;;;2.88;;
69207;SDS011;70114;47.690;8.898;2023-09-30T02:28:57;10.57;;;2.45;;
69207;SDS011;70114;47.690;8.898;2023-09-30T02:31:23;13.75;;;3.20;;
69207;SDS011;70114;47.690;8.898;2023-09-30T02:33:49;13.53;;;2.87;;
69207;SDS011;70114;47.690;8.898;2023-09-30T02:36:14;12.83;;;3.00;;
69207;SDS011;70114;47.690;8.898;2023-09-30T02:38:41;12.10;;;2.90;;
69207;SDS011;70114;47.690;8.898;2023-09-30T02:41:06;14.95;;;2.95;;
69207;SDS011;70114;47.690;8.898;2023-09-30T02:43:32;12.43;;;3.70;;
69207;SDS011;70114;47.690;8.898;2023-09-30T02:45:58;11.30;;;2.53;;
69207;SDS011;70114;47.690;8.898;2023-09-30T02:48:24;11.75;;;2.75;;
69207;SDS011;70114;47.690;8.898;2023-09-30T02:50:49;12.17;;;2.40;;
69207;SDS011;70114;47.690;8.898;2023-09-30T02:53:15;10.27;;;2.60;;
69207;SDS011;70114;47.690;8.898;2023-09-30T02:55:41;10.15;;;2.25;;
69207;SDS011;70114;47.690;8.898;2023-09-30T02:58:09;10.35;;;2.00;;
69207;SDS011;70114;47.690;8.898;2023-09-30T03:00:35;9.43;;;2.17;;
69207;SDS011;70114;47.690;8.898;2023-09-30T03:03:03;9.95;;;1.80;;
69207;SDS011;70114;47.690;8.898;2023-09-30T03:05:29;11.07;;;2.40;;
69207;SDS011;70114;47.690;8.898;2023-09-30T03:07:58;10.85;;;2.08;;
69207;SDS011;70114;47.690;8.898;2023-09-30T03:10:25;11.77;;;2.40;;
69207;SDS011;70114;47.690;8.898;2023-09-30T03:12:58;10.03;;;1.90;;
69207;SDS011;70114;47.690;8.898;2023-09-30T03:15:27;9.13;;;1.60;;
69207;SDS011;70114;47.690;8.898;2023-09-30T03:17:56;9.73;;;1.73;;
69207;SDS011;70114;47.690;8.898;2023-09-30T03:20:22;10.57;;;1.67;;
69207;SDS011;70114;47.690;8.898;2023-09-30T03:22:50;10.38;;;2.15;;
69207;SDS011;70114;47.690;8.898;2023-09-30T03:25:16;9.37;;;1.80;;
69207;SDS011;70114;47.690;8.898;2023-09-30T03:27:46;9.93;;;2.03;;
69207;SDS011;70114;47.690;8.898;2023-09-30T03:30:15;12.43;;;2.40;;
69207;SDS011;70114;47.690;8.898;2023-09-30T03:32:41;12.13;;;2.30;;
69207;SDS011;70114;47.690;8.898;2023-09-30T03:35:08;11.40;;;2.03;;
69207;SDS011;70114;47.690;8.898;2023-09-30T03:37:42;12.40;;;2.40;;
69207;SDS011;70114;47.690;8.898;2023-09-30T03:40:12;10.95;;;2.13;;
69207;SDS011;70114;47.690;8.898;2023-09-30T03:42:44;10.73;;;2.30;;
69207;SDS011;70114;47.690;8.898;2023-09-30T03:45:11;10.82;;;2.20;;
69207;SDS011;70114;47.690;8.898;2023-09-30T03:47:39;9.98;;;2.20;;
69207;SDS011;70114;47.690;8.898;2023-09-30T03:50:05;10.03;;;1.87;;
69207;SDS011;70114;47.690;8.898;2023-09-30T03:52:37;8.93;;;1.70;;
69207;SDS011;70114;47.690;8.898;2023-09-30T03:55:04;9.15;;;1.80;;
69207;SDS011;70114;47.690;8.898;2023-09-30T03:57:33;8.70;;;1.70;;
69207;SDS011;70114;47.690;8.898;2023-09-30T04:00:01;8.80;;;1.50;;
69207;SDS011;70114;47.690;8.898;2023-09-30T04:02:31;9.40;;;2.03;;
69207;SDS011;70114;47.690;8.898;2023-09-30T04:04:56;9.38;;;1.80;;
69207;SDS011;70114;47.690;8.898;2023-09-30T04:07:22;11.07;;;1.90;;
69207;SDS011;70114;47.690;8.898;2023-09-30T04:09:55;11.20;;;2.10;;
69207;SDS011;70114;47.690;8.898;2023-09-30T04:12:21;9.30;;;1.52;;
69207;SDS011;70114;47.690;8.898;2023-09-30T04:14:48;10.75;;;1.80;;
69207;SDS011;70114;47.690;8.898;2023-09-30T04:17:14;9.82;;;1.90;;
69207;SDS011;70114;47.690;8.898;2023-09-30T04:19:40;10.77;;;2.00;;
69207;SDS011;70114;47.690;8.898;2023-09-30T04:22:05;9.60;;;2.10;;
69207;SDS011;70114;47.690;8.898;2023-09-30T04:24:31;11.83;;;2.23;;
69207;SDS011;70114;47.690;8.898;2023-09-30T04:26:56;11.53;;;2.00;;
69207;SDS011;70114;47.690;8.898;2023-09-30T04:29:28;11.13;;;2.10;;
69207;SDS011;70114;47.690;8.898;2023-09-30T04:31:55;11.70;;;2.10;;
69207;SDS011;70114;47.690;8.898;2023-09-30T04:34:21;9.40;;;2.00;;
69207;SDS011;70114;47.690;8.898;2023-09-30T04:36:47;11.03;;;2.50;;
69207;SDS011;70114;47.690;8.898;2023-09-30T04:39:12;10.75;;;2.00;;
69207;SDS011;70114;47.690;8.898;2023-09-30T04:41:39;8.05;;;1.55;;
69207;SDS011;70114;47.690;8.898;2023-09-30T04:44:06;8.05;;;1.50;;
69207;SDS011;70114;47.690;8.898;2023-09-30T04:46:32;7.93;;;1.40;;
69207;SDS011;70114;47.690;8.898;2023-09-30T04:48:57;11.25;;;1.88;;
69207;SDS011;70114;47.690;8.898;2023-09-30T04:51:23;8.90;;;1.80;;
69207;SDS011;70114;47.690;8.898;2023-09-30T04:53:51;9.77;;;1.88;;
69207;SDS011;70114;47.690;8.898;2023-09-30T04:56:19;9.70;;;2.13;;
69207;SDS011;70114;47.690;8.898;2023-09-30T04:58:44;9.13;;;1.50;;
69207;SDS011;70114;47.690;8.898;2023-09-30T05:01:12;9.85;;;2.00;;
69207;SDS011;70114;47.690;8.898;2023-09-30T05:03:37;10.50;;;1.90;;
69207;SDS011;70114;47.690;8.898;2023-09-30T05:06:03;9.17;;;1.70;;
69207;SDS011;70114;47.690;8.898;2023-09-30T05:08:28;7.38;;;1.30;;
69207;SDS011;70114;47.690;8.898;2023-09-30T05:10:54;8.97;;;1.53;;
69207;SDS011;70114;47.690;8.898;2023-09-30T05:13:20;7.25;;;1.33;;
69207;SDS011;70114;47.690;8.898;2023-09-30T05:15:48;10.43;;;1.85;;
69207;SDS011;70114;47.690;8.898;2023-09-30T05:18:14;8.82;;;1.60;;
69207;SDS011;70114;47.690;8.898;2023-09-30T05:20:40;10.53;;;1.77;;
69207;SDS011;70114;47.690;8.898;2023-09-30T05:23:06;11.13;;;1.95;;
69207;SDS011;70114;47.690;8.898;2023-09-30T05:25:40;9.38;;;1.80;;
69207;SDS011;70114;47.690;8.898;2023-09-30T05:28:07;10.57;;;1.90;;
69207;SDS011;70114;47.690;8.898;2023-09-30T05:30:34;8.80;;;1.83;;
69207;SDS011;70114;47.690;8.898;2023-09-30T05:33:00;8.98;;;1.50;;
69207;SDS011;70114;47.690;8.898;2023-09-30T05:35:29;9.48;;;1.70;;
69207;SDS011;70114;47.690;8.898;2023-09-30T05:37:56;11.43;;;1.63;;
69207;SDS011;70114;47.690;8.898;2023-09-30T05:40:22;9.40;;;1.60;;
69207;SDS011;70114;47.690;8.898;2023-09-30T05:42:54;12.48;;;2.50;;
69207;SDS011;70114;47.690;8.898;2023-09-30T05:45:22;9.63;;;1.95;;
69207;SDS011;70114;47.690;8.898;2023-09-30T05:47:54;9.50;;;1.90;;
69207;SDS011;70114;47.690;8.898;2023-09-30T05:50:21;11.02;;;2.03;;
69207;SDS011;70114;47.690;8.898;2023-09-30T05:52:51;9.65;;;1.75;;
69207;SDS011;70114;47.690;8.898;2023-09-30T05:55:18;11.48;;;2.20;;
69207;SDS011;70114;47.690;8.898;2023-09-30T05:57:47;10.82;;;2.10;;
69207;SDS011;70114;47.690;8.898;2023-09-30T06:00:17;9.13;;;1.87;;
69207;SDS011;70114;47.690;8.898;2023-09-30T06:02:48;9.98;;;1.70;;
69207;SDS011;70114;47.690;8.898;2023-09-30T06:05:14;7.88;;;1.63;;
69207;SDS011;70114;47.690;8.898;2023-09-30T06:07:47;9.95;;;2.00;;
69207;SDS011;70114;47.690;8.898;2023-09-30T06:10:13;8.90;;;1.73;;
69207;SDS011;70114;47.690;8.898;2023-09-30T06:12:43;10.47;;;2.13;;
69207;SDS011;70114;47.690;8.898;2023-09-30T06:15:10;11.02;;;1.83;;
69207;SDS011;70114;47.690;8.898;2023-09-30T06:17:35;9.40;;;1.80;;
69207;SDS011;70114;47.690;8.898;2023-09-30T06:20:03;12.17;;;2.10;;
69207;SDS011;70114;47.690;8.898;2023-09-30T06:22:41;10.82;;;1.80;;
69207;SDS011;70114;47.690;8.898;2023-09-30T06:25:08;9.77;;;2.00;;
69207;SDS011;70114;47.690;8.898;2023-09-30T06:27:34;9.67;;;2.10;;
69207;SDS011;70114;47.690;8.898;2023-09-30T06:29:59;7.70;;;1.80;;
69207;SDS011;70114;47.690;8.898;2023-09-30T06:32:25;9.97;;;2.30;;
69207;SDS011;70114;47.690;8.898;2023-09-30T06:34:51;11.38;;;2.08;;
69207;SDS011;70114;47.690;8.898;2023-09-30T06:37:18;8.73;;;1.70;;
69207;SDS011;70114;47.690;8.898;2023-09-30T06:39:43;11.00;;;2.13;;
69207;SDS011;70114;47.690;8.898;2023-09-30T06:42:09;10.50;;;2.13;;
69207;SDS011;70114;47.690;8.898;2023-09-30T06:44:34;8.70;;;1.90;;
69207;SDS011;70114;47.690;8.898;2023-09-30T06:47:00;9.67;;;1.67;;
69207;SDS011;70114;47.690;8.898;2023-09-30T06:49:26;9.90;;;2.10;;
69207;SDS011;70114;47.690;8.898;2023-09-30T06:51:51;8.10;;;1.80;;
69207;SDS011;70114;47.690;8.898;2023-09-30T06:54:17;10.63;;;2.13;;
69207;SDS011;70114;47.690;8.898;2023-09-30T06:56:43;11.53;;;2.20;;
69207;SDS011;70114;47.690;8.898;2023-09-30T06:59:08;10.73;;;2.03;;
69207;SDS011;70114;47.690;8.898;2023-09-30T07:01:34;8.63;;;2.00;;
69207;SDS011;70114;47.690;8.898;2023-09-30T07:03:59;9.67;;;1.73;;
69207;SDS011;70114;47.690;8.898;2023-09-30T07:06:26;11.15;;;2.00;;
69207;SDS011;70114;47.690;8.898;2023-09-30T07:08:52;10.02;;;1.95;;
69207;SDS011;70114;47.690;8.898;2023-09-30T07:11:27;11.30;;;2.33;;
69207;SDS011;70114;47.690;8.898;2023-09-30T07:14:03;9.93;;;2.10;;
69207;SDS011;70114;47.690;8.898;2023-09-30T07:16:28;9.88;;;1.77;;
69207;SDS011;70114;47.690;8.898;2023-09-30T07:18:54;12.07;;;2.13;;
69207;SDS011;70114;47.690;8.898;2023-09-30T07:21:20;11.35;;;2.03;;
69207;SDS011;70114;47.690;8.898;2023-09-30T07:23:46;8.57;;;1.70;;
69207;SDS011;70114;47.690;8.898;2023-09-30T07:26:13;11.57;;;2.25;;
69207;SDS011;70114;47.690;8.898;2023-09-30T07:28:39;11.30;;;2.20;;
69207;SDS011;70114;47.690;8.898;2023-09-30T07:31:05;10.00;;;1.83;;
69207;SDS011;70114;47.690;8.898;2023-09-30T07:33:31;10.15;;;2.30;;
69207;SDS011;70114;47.690;8.898;2023-09-30T07:35:57;9.97;;;1.83;;
69207;SDS011;70114;47.690;8.898;2023-09-30T07:38:22;10.03;;;1.80;;
69207;SDS011;70114;47.690;8.898;2023-09-30T07:40:48;11.25;;;2.40;;
69207;SDS011;70114;47.690;8.898;2023-09-30T07:43:16;9.40;;;2.03;;
69207;SDS011;70114;47.690;8.898;2023-09-30T07:45:42;10.02;;;2.05;;
69207;SDS011;70114;47.690;8.898;2023-09-30T07:48:08;11.77;;;2.42;;
69207;SDS011;70114;47.690;8.898;2023-09-30T07:50:35;10.43;;;2.20;;
69207;SDS011;70114;47.690;8.898;2023-09-30T07:53:01;11.02;;;2.40;;
69207;SDS011;70114;47.690;8.898;2023-09-30T07:55:27;11.73;;;2.53;;
69207;SDS011;70114;47.690;8.898;2023-09-30T07:57:53;11.82;;;2.35;;
69207;SDS011;70114;47.690;8.898;2023-09-30T08:00:19;11.53;;;2.63;;
69207;SDS011;70114;47.690;8.898;2023-09-30T08:02:48;11.55;;;2.47;;
69207;SDS011;70114;47.690;8.898;2023-09-30T08:05:15;9.98;;;2.20;;
69207;SDS011;70114;47.690;8.898;2023-09-30T08:07:43;10.90;;;2.30;;
69207;SDS011;70114;47.690;8.898;2023-09-30T08:10:14;11.57;;;2.20;;
69207;SDS011;70114;47.690;8.898;2023-09-30T08:12:41;13.05;;;2.47;;
69207;SDS011;70114;47.690;8.898;2023-09-30T08:15:07;12.13;;;2.60;;
69207;SDS011;70114;47.690;8.898;2023-09-30T08:17:36;11.23;;;2.40;;
69207;SDS011;70114;47.690;8.898;2023-09-30T08:20:02;10.60;;;2.15;;
69207;SDS011;70114;47.690;8.898;2023-09-30T08:22:29;11.52;;;3.20;;
69207;SDS011;70114;47.690;8.898;2023-09-30T08:24:57;10.97;;;2.57;;
69207;SDS011;70114;47.690;8.898;2023-09-30T08:27:23;10.65;;;2.22;;
69207;SDS011;70114;47.690;8.898;2023-09-30T08:29:51;12.02;;;2.50;;
69207;SDS011;70114;47.690;8.898;2023-09-30T08:32:17;12.10;;;3.10;;
69207;SDS011;70114;47.690;8.898;2023-09-30T08:34:46;12.30;;;2.42;;
69207;SDS011;70114;47.690;8.898;2023-09-30T08:37:14;11.70;;;2.30;;
69207;SDS011;70114;47.690;8.898;2023-09-30T08:39:40;10.30;;;2.33;;
69207;SDS011;70114;47.690;8.898;2023-09-30T08:42:09;14.20;;;3.20;;
69207;SDS011;70114;47.690;8.898;2023-09-30T08:44:38;13.60;;;3.10;;
69207;SDS011;70114;47.690;8.898;2023-09-30T08:47:05;14.33;;;3.30;;
69207;SDS011;70114;47.690;8.898;2023-09-30T08:49:34;12.77;;;2.45;;
69207;SDS011;70114;47.690;8.898;2023-09-30T08:52:13;13.63;;;2.70;;
69207;SDS011;70114;47.690;8.898;2023-09-30T08:54:42;12.50;;;2.70;;
69207;SDS011;70114;47.690;8.898;2023-09-30T08:57:11;12.23;;;3.37;;
69207;SDS011;70114;47.690;8.898;2023-09-30T08:59:44;11.38;;;2.40;;
69207;SDS011;70114;47.690;8.898;2023-09-30T09:02:11;11.68;;;2.63;;
69207;SDS011;70114;47.690;8.898;2023-09-30T09:04:37;12.50;;;2.97;;
69207;SDS011;70114;47.690;8.898;2023-09-30T09:07:02;12.20;;;2.93;;
69207;SDS011;70114;47.690;8.898;2023-09-30T09:09:28;12.73;;;2.88;;
69207;SDS011;70114;47.690;8.898;2023-09-30T09:11:53;12.73;;;2.53;;
69207;SDS011;70114;47.690;8.898;2023-09-30T09:14:19;11.40;;;3.00;;
69207;SDS011;70114;47.690;8.898;2023-09-30T09:16:55;9.80;;;2.50;;
69207;SDS011;70114;47.690;8.898;2023-09-30T09:19:20;11.57;;;2.63;;
69207;SDS011;70114;47.690;8.898;2023-09-30T09:21:53;17.03;;;6.00;;
69207;SDS011;70114;47.690;8.898;2023-09-30T09:24:53;13.13;;;3.20;;
69207;SDS011;70114;47.690;8.898;2023-09-30T09:27:13;14.45;;;3.40;;
69207;SDS011;70114;47.690;8.898;2023-09-30T09:29:41;12.95;;;2.58;;
69207;SDS011;70114;47.690;8.898;2023-09-30T09:32:11;13.02;;;3.10;;
69207;SDS011;70114;47.690;8.898;2023-09-30T09:34:38;11.67;;;2.77;;
69207;SDS011;70114;47.690;8.898;2023-09-30T09:37:18;15.20;;;3.30;;
69207;SDS011;70114;47.690;8.898;2023-09-30T09:39:51;11.20;;;2.60;;
69207;SDS011;70114;47.690;8.898;2023-09-30T09:44:55;12.00;;;3.20;;
69207;SDS011;70114;47.690;8.898;2023-09-30T09:47:22;14.13;;;3.43;;
69207;SDS011;70114;47.690;8.898;2023-09-30T09:49:49;12.50;;;3.17;;
69207;SDS011;70114;47.690;8.898;2023-09-30T09:52:15;11.98;;;3.10;;
69207;SDS011;70114;47.690;8.898;2023-09-30T09:54:43;12.27;;;3.00;;
69207;SDS011;70114;47.690;8.898;2023-09-30T09:57:10;11.60;;;2.67;;
69207;SDS011;70114;47.690;8.898;2023-09-30T09:59:38;11.27;;;2.60;;
69207;SDS011;70114;47.690;8.898;2023-09-30T10:02:11;10.82;;;2.70;;
69207;SDS011;70114;47.690;8.898;2023-09-30T10:04:39;12.65;;;2.55;;
69207;SDS011;70114;47.690;8.898;2023-09-30T10:07:10;12.47;;;2.80;;
69207;SDS011;70114;47.690;8.898;2023-09-30T10:09:39;12.00;;;2.45;;
69207;SDS011;70114;47.690;8.898;2023-09-30T10:12:08;12.18;;;2.70;;
69207;SDS011;70114;47.690;8.898;2023-09-30T10:14:35;10.38;;;2.30;;
69207;SDS011;70114;47.690;8.898;2023-09-30T10:17:03;11.05;;;2.80;;
69207;SDS011;70114;47.690;8.898;2023-09-30T10:19:29;11.70;;;2.80;;
69207;SDS011;70114;47.690;8.898;2023-09-30T10:24:50;10.88;;;2.95;;
69207;SDS011;70114;47.690;8.898;2023-09-30T10:29:54;12.13;;;2.78;;
69207;SDS011;70114;47.690;8.898;2023-09-30T10:32:23;11.90;;;2.80;;
69207;SDS011;70114;47.690;8.898;2023-09-30T10:35:22;13.40;;;2.75;;
69207;SDS011;70114;47.690;8.898;2023-09-30T10:40:52;11.10;;;2.57;;
69207;SDS011;70114;47.690;8.898;2023-09-30T10:43:28;11.20;;;2.80;;
69207;SDS011;70114;47.690;8.898;2023-09-30T10:45:56;10.80;;;2.55;;
69207;SDS011;70114;47.690;8.898;2023-09-30T10:50:50;13.73;;;2.95;;
69207;SDS011;70114;47.690;8.898;2023-09-30T10:53:17;11.45;;;2.90;;
69207;SDS011;70114;47.690;8.898;2023-09-30T10:55:47;11.87;;;2.90;;
69207;SDS011;70114;47.690;8.898;2023-09-30T11:01:13;11.30;;;2.97;;
69207;SDS011;70114;47.690;8.898;2023-09-30T11:03:43;12.10;;;2.60;;
69207;SDS011;70114;47.690;8.898;2023-09-30T11:06:13;10.95;;;3.08;;
69207;SDS011;70114;47.690;8.898;2023-09-30T11:08:44;10.97;;;2.70;;
69207;SDS011;70114;47.690;8.898;2023-09-30T11:11:12;11.70;;;3.00;;
69207;SDS011;70114;47.690;8.898;2023-09-30T11:13:39;11.70;;;3.00;;
69207;SDS011;70114;47.690;8.898;2023-09-30T11:16:05;10.60;;;2.63;;
69207;SDS011;70114;47.690;8.898;2023-09-30T11:18:31;11.63;;;3.30;;
69207;SDS011;70114;47.690;8.898;2023-09-30T11:21:07;12.70;;;3.20;;
69207;SDS011;70114;47.690;8.898;2023-09-30T11:23:35;12.20;;;2.83;;
69207;SDS011;70114;47.690;8.898;2023-09-30T11:26:02;11.55;;;3.08;;
69207;SDS011;70114;47.690;8.898;2023-09-30T11:28:35;11.30;;;2.60;;
69207;SDS011;70114;47.690;8.898;2023-09-30T11:31:02;12.15;;;3.42;;
69207;SDS011;70114;47.690;8.898;2023-09-30T11:33:28;11.85;;;3.28;;
69207;SDS011;70114;47.690;8.898;2023-09-30T11:36:02;11.00;;;2.90;;
69207;SDS011;70114;47.690;8.898;2023-09-30T11:38:30;10.83;;;2.63;;
69207;SDS011;70114;47.690;8.898;2023-09-30T11:41:00;12.52;;;2.90;;
69207;SDS011;70114;47.690;8.898;2023-09-30T11:43:31;12.63;;;2.95;;
69207;SDS011;70114;47.690;8.898;2023-09-30T11:46:11;11.80;;;2.88;;
69207;SDS011;70114;47.690;8.898;2023-09-30T11:48:40;11.18;;;3.42;;
69207;SDS011;70114;47.690;8.898;2023-09-30T11:51:22;11.43;;;2.97;;
69207;SDS011;70114;47.690;8.898;2023-09-30T11:53:51;10.07;;;2.75;;
69207;SDS011;70114;47.690;8.898;2023-09-30T11:56:18;12.43;;;3.03;;
69207;SDS011;70114;47.690;8.898;2023-09-30T11:58:44;12.70;;;2.87;;
69207;SDS011;70114;47.690;8.898;2023-09-30T12:01:11;10.73;;;2.75;;
69207;SDS011;70114;47.690;8.898;2023-09-30T12:03:39;11.63;;;2.70;;
69207;SDS011;70114;47.690;8.898;2023-09-30T12:06:05;11.52;;;2.70;;
69207;SDS011;70114;47.690;8.898;2023-09-30T12:08:31;10.82;;;2.53;;
69207;SDS011;70114;47.690;8.898;2023-09-30T12:10:57;11.53;;;2.40;;
69207;SDS011;70114;47.690;8.898;2023-09-30T12:13:24;13.32;;;2.75;;
69207;SDS011;70114;47.690;8.898;2023-09-30T12:15:50;13.60;;;3.00;;
69207;SDS011;70114;47.690;8.898;2023-09-30T12:18:18;11.15;;;2.63;;
69207;SDS011;70114;47.690;8.898;2023-09-30T12:20:48;12.05;;;2.92;;
69207;SDS011;70114;47.690;8.898;2023-09-30T12:23:14;10.65;;;2.70;;
69207;SDS011;70114;47.690;8.898;2023-09-30T12:25:40;9.83;;;2.73;;
69207;SDS011;70114;47.690;8.898;2023-09-30T12:28:05;11.27;;;2.50;;
69207;SDS011;70114;47.690;8.898;2023-09-30T12:30:30;11.98;;;2.70;;
69207;SDS011;70114;47.690;8.898;2023-09-30T12:32:57;14.10;;;3.07;;
69207;SDS011;70114;47.690;8.898;2023-09-30T12:35:23;12.02;;;2.88;;
69207;SDS011;70114;47.690;8.898;2023-09-30T12:37:48;12.05;;;2.58;;
69207;SDS011;70114;47.690;8.898;2023-09-30T12:40:14;10.83;;;2.97;;
69207;SDS011;70114;47.690;8.898;2023-09-30T12:42:42;11.02;;;2.97;;
69207;SDS011;70114;47.690;8.898;2023-09-30T12:45:08;12.05;;;2.80;;
69207;SDS011;70114;47.690;8.898;2023-09-30T12:47:34;12.33;;;3.07;;
69207;SDS011;70114;47.690;8.898;2023-09-30T12:49:59;12.93;;;2.80;;
69207;SDS011;70114;47.690;8.898;2023-09-30T12:52:25;11.87;;;2.80;;
69207;SDS011;70114;47.690;8.898;2023-09-30T12:54:50;12.70;;;3.00;;
69207;SDS011;70114;47.690;8.898;2023-09-30T12:57:16;13.63;;;3.00;;
69207;SDS011;70114;47.690;8.898;2023-09-30T12:59:45;11.47;;;2.57;;
69207;SDS011;70114;47.690;8.898;2023-09-30T13:02:12;12.90;;;3.60;;
69207;SDS011;70114;47.690;8.898;2023-09-30T13:04:38;13.38;;;3.38;;
69207;SDS011;70114;47.690;8.898;2023-09-30T13:07:08;10.77;;;2.70;;
69207;SDS011;70114;47.690;8.898;2023-09-30T13:09:35;12.07;;;2.90;;
69207;SDS011;70114;47.690;8.898;2023-09-30T13:12:01;13.00;;;3.10;;
69207;SDS011;70114;47.690;8.898;2023-09-30T13:14:27;12.75;;;3.30;;
69207;SDS011;70114;47.690;8.898;2023-09-30T13:16:53;12.35;;;3.03;;
69207;SDS011;70114;47.690;8.898;2023-09-30T13:19:19;11.33;;;2.93;;
69207;SDS011;70114;47.690;8.898;2023-09-30T13:21:46;11.85;;;3.03;;
69207;SDS011;70114;47.690;8.898;2023-09-30T13:24:13;13.85;;;3.30;;
69207;SDS011;70114;47.690;8.898;2023-09-30T13:26:39;11.25;;;2.90;;
69207;SDS011;70114;47.690;8.898;2023-09-30T13:29:04;11.37;;;3.20;;
69207;SDS011;70114;47.690;8.898;2023-09-30T13:31:30;11.33;;;3.20;;
69207;SDS011;70114;47.690;8.898;2023-09-30T13:33:56;12.45;;;3.10;;
69207;SDS011;70114;47.690;8.898;2023-09-30T13:36:22;11.57;;;3.10;;
69207;SDS011;70114;47.690;8.898;2023-09-30T13:38:47;13.40;;;3.33;;
69207;SDS011;70114;47.690;8.898;2023-09-30T13:41:14;11.05;;;3.00;;
69207;SDS011;70114;47.690;8.898;2023-09-30T13:43:40;11.27;;;2.95;;
69207;SDS011;70114;47.690;8.898;2023-09-30T13:46:06;12.03;;;3.40;;
69207;SDS011;70114;47.690;8.898;2023-09-30T13:48:32;10.50;;;2.93;;
69207;SDS011;70114;47.690;8.898;2023-09-30T13:51:06;11.45;;;3.13;;
69207;SDS011;70114;47.690;8.898;2023-09-30T13:53:32;12.15;;;3.20;;
69207;SDS011;70114;47.690;8.898;2023-09-30T13:55:58;12.32;;;3.30;;
69207;SDS011;70114;47.690;8.898;2023-09-30T13:58:24;11.80;;;2.83;;
69207;SDS011;70114;47.690;8.898;2023-09-30T14:00:50;11.55;;;3.20;;
69207;SDS011;70114;47.690;8.898;2023-09-30T14:03:18;11.57;;;3.10;;
69207;SDS011;70114;47.690;8.898;2023-09-30T14:05:44;11.45;;;3.00;;
69207;SDS011;70114;47.690;8.898;2023-09-30T14:08:12;12.52;;;3.45;;
69207;SDS011;70114;47.690;8.898;2023-09-30T14:10:38;10.50;;;3.00;;
69207;SDS011;70114;47.690;8.898;2023-09-30T14:13:04;12.15;;;3.08;;
69207;SDS011;70114;47.690;8.898;2023-09-30T14:15:29;11.43;;;3.10;;
69207;SDS011;70114;47.690;8.898;2023-09-30T14:17:58;11.93;;;3.10;;
69207;SDS011;70114;47.690;8.898;2023-09-30T14:20:24;11.82;;;2.90;;
69207;SDS011;70114;47.690;8.898;2023-09-30T14:22:50;11.15;;;3.20;;
69207;SDS011;70114;47.690;8.898;2023-09-30T14:25:17;13.05;;;3.17;;
69207;SDS011;70114;47.690;8.898;2023-09-30T14:27:42;10.38;;;2.72;;
69207;SDS011;70114;47.690;8.898;2023-09-30T14:30:08;10.90;;;2.80;;
69207;SDS011;70114;47.690;8.898;2023-09-30T14:32:34;12.18;;;3.25;;
69207;SDS011;70114;47.690;8.898;2023-09-30T14:35:00;12.87;;;3.13;;
69207;SDS011;70114;47.690;8.898;2023-09-30T14:37:25;11.60;;;3.23;;
69207;SDS011;70114;47.690;8.898;2023-09-30T14:39:50;12.27;;;3.00;;
69207;SDS011;70114;47.690;8.898;2023-09-30T14:42:16;12.40;;;3.57;;
69207;SDS011;70114;47.690;8.898;2023-09-30T14:44:41;11.00;;;3.27;;
69207;SDS011;70114;47.690;8.898;2023-09-30T14:47:07;11.00;;;3.25;;
69207;SDS011;70114;47.690;8.898;2023-09-30T14:49:33;14.00;;;3.33;;
69207;SDS011;70114;47.690;8.898;2023-09-30T14:51:59;11.97;;;3.07;;
69207;SDS011;70114;47.690;8.898;2023-09-30T14:54:25;12.82;;;2.85;;